createdAt,value
2023-05-14T05:01:57.178Z,98058.91
2023-05-14T05:06:58.647Z,98057.91
2023-05-14T05:12:01.479Z,98061.69
2023-05-14T05:17:02.958Z,98055.06
2023-05-14T05:22:04.758Z,98053.84
2023-05-14T05:27:06.294Z,98055.13
2023-05-14T05:32:08.065Z,98044.88
2023-05-14T05:37:12.643Z,98051.75
2023-05-14T05:42:14.547Z,98046.63
2023-05-14T05:47:17.034Z,98040.53
2023-05-14T05:52:18.477Z,98044.31
2023-05-14T05:57:19.913Z,98047.50
2023-05-14T06:02:21.490Z,98040.72
2023-05-14T06:07:22.942Z,98042.06
2023-05-14T06:12:24.366Z,98042.94
2023-05-14T06:17:25.953Z,98042.16
2023-05-14T06:22:27.435Z,98039.31
2023-05-14T06:27:28.852Z,98044.28
2023-05-14T06:32:30.374Z,98040.19
2023-05-14T06:37:32.027Z,98046.41
2023-05-14T06:42:33.542Z,98033.59
2023-05-14T06:47:35.043Z,98039.63
2023-05-14T06:52:36.967Z,98032.19
2023-05-14T06:57:40.563Z,98024.97
2023-05-14T07:02:42.313Z,98023.72
2023-05-14T07:07:43.766Z,98027.84
2023-05-14T07:12:45.484Z,98022.44
2023-05-14T07:17:46.982Z,98020.34
2023-05-14T07:22:48.508Z,98016.59
2023-05-14T07:27:49.952Z,98008.72
2023-05-14T07:32:51.677Z,98014.91
2023-05-14T07:37:54.145Z,98002.88
2023-05-14T07:42:55.625Z,97993.09
2023-05-14T07:47:57.092Z,97999.06
2023-05-14T07:52:58.574Z,97992.59
2023-05-14T07:58:00.303Z,97992.38
2023-05-14T08:03:01.845Z,97985.72
2023-05-14T08:08:03.595Z,97986.88
2023-05-14T08:13:05.094Z,97994.47
2023-05-14T08:18:06.583Z,97979.28
2023-05-14T08:23:09.073Z,97982.91
2023-05-14T08:28:10.569Z,97977.69
2023-05-14T08:33:12.081Z,97974.31
2023-05-14T08:38:13.516Z,97978.22
2023-05-14T08:43:20.351Z,97970.31
2023-05-14T08:48:23.029Z,97970.16
2023-05-14T08:53:24.573Z,97976.00
2023-05-14T08:58:26.684Z,97970.16
2023-05-14T09:03:29.092Z,97963.91
2023-05-14T09:08:30.906Z,97967.06
2023-05-14T09:13:32.373Z,97965.59
2023-05-14T09:18:36.015Z,97953.88
2023-05-14T09:23:41.933Z,97961.19
2023-05-14T09:28:43.480Z,97956.41
2023-05-14T09:33:50.466Z,97961.31
2023-05-14T09:38:51.854Z,97957.72
2023-05-14T09:43:53.752Z,97952.59
2023-05-14T09:48:55.939Z,97940.94
2023-05-14T09:53:57.292Z,97933.56
2023-05-14T09:58:58.912Z,97928.50
2023-05-14T10:04:03.981Z,97918.97
2023-05-14T10:09:13.212Z,97911.13
2023-05-14T10:14:20.895Z,97901.34
2023-05-14T10:19:27.943Z,97900.38
2023-05-14T10:24:30.008Z,97901.97
2023-05-14T10:29:33.758Z,97882.38
2023-05-14T10:34:44.098Z,97880.56
2023-05-14T10:40:01.467Z,97883.06
2023-05-14T10:45:07.390Z,97884.31
2023-05-14T10:50:11.427Z,97871.81
2023-05-14T10:55:15.020Z,97876.59
2023-05-14T11:00:17.181Z,97866.44
2023-05-14T11:05:18.670Z,97868.50
2023-05-14T11:10:21.844Z,97867.06
2023-05-14T11:15:28.212Z,97864.03
2023-05-14T11:20:29.740Z,97862.25
2023-05-14T11:25:31.350Z,97858.53
2023-05-14T11:30:32.793Z,97857.94
2023-05-14T11:35:36.536Z,97849.56
2023-05-14T11:40:37.983Z,97847.78
2023-05-14T11:45:39.522Z,97836.09
2023-05-14T11:50:45.186Z,97834.56
2023-05-14T11:55:47.810Z,97824.91
2023-05-14T12:00:55.000Z,97827.91
2023-05-14T12:06:00.848Z,97822.03
2023-05-14T12:11:02.265Z,97825.06
2023-05-14T12:16:03.902Z,97808.41
2023-05-14T12:21:08.171Z,97803.84
2023-05-14T12:26:09.706Z,97812.59
2023-05-14T12:31:11.229Z,97796.66
2023-05-14T12:36:21.691Z,97794.69
2023-05-14T12:41:23.715Z,97799.16
2023-05-14T12:46:27.494Z,97779.81
2023-05-14T12:51:29.056Z,97777.81
2023-05-14T12:56:31.959Z,97774.13
2023-05-14T13:01:33.597Z,97771.28
2023-05-14T13:06:35.199Z,97764.66
2023-05-14T13:11:36.611Z,97761.66
2023-05-14T13:16:38.076Z,97771.47
2023-05-14T13:21:39.526Z,97768.66
2023-05-14T13:26:40.922Z,97769.28
2023-05-14T13:31:42.382Z,97761.66
2023-05-14T13:36:43.926Z,97748.16
2023-05-14T13:41:45.503Z,97754.75
2023-05-14T13:46:47.260Z,97753.34
2023-05-14T13:51:48.629Z,97746.25
2023-05-14T13:56:50.152Z,97741.56
2023-05-14T14:01:51.727Z,97741.78
2023-05-14T14:06:53.249Z,97742.59
2023-05-14T14:11:54.811Z,97734.41
2023-05-14T14:16:56.302Z,97735.47
2023-05-14T14:21:57.917Z,97734.06
2023-05-14T14:26:59.411Z,97740.75
2023-05-14T14:32:01.727Z,97729.00
2023-05-14T14:37:03.281Z,97725.38
2023-05-14T14:42:05.617Z,97715.53
2023-05-14T14:47:07.058Z,97715.69
2023-05-14T14:52:08.779Z,97711.59
2023-05-14T14:57:10.387Z,97714.25
2023-05-14T15:02:11.826Z,97699.78
2023-05-14T15:07:15.782Z,97698.03
2023-05-14T15:12:17.321Z,97695.50
2023-05-14T15:17:18.745Z,97695.31
2023-05-14T15:22:20.210Z,97693.16
2023-05-14T15:27:21.628Z,97691.59
2023-05-14T15:32:24.078Z,97690.56
2023-05-14T15:37:26.635Z,97686.38
2023-05-14T15:42:28.113Z,97682.75
2023-05-14T15:47:29.560Z,97684.88
2023-05-14T15:52:31.487Z,97680.69
2023-05-14T15:57:33.240Z,97682.25
2023-05-14T16:02:34.697Z,97671.88
2023-05-14T16:07:36.633Z,97675.63
2023-05-14T16:12:38.114Z,97675.28
2023-05-14T16:17:39.596Z,97679.53
2023-05-14T16:22:41.167Z,97672.97
2023-05-14T16:27:42.984Z,97676.38
2023-05-14T16:32:48.389Z,97674.63
2023-05-14T16:37:50.427Z,97678.88
2023-05-14T16:42:51.890Z,97672.69
2023-05-14T16:47:53.336Z,97677.97
2023-05-14T16:52:54.883Z,97671.88
2023-05-14T16:57:56.464Z,97675.19
2023-05-14T17:02:57.927Z,97677.91
2023-05-14T17:07:59.440Z,97672.75
2023-05-14T17:13:01.039Z,97662.63
2023-05-14T17:18:02.563Z,97654.50
2023-05-14T17:23:04.072Z,97660.03
2023-05-14T17:28:05.525Z,97660.38
2023-05-14T17:33:07.143Z,97665.88
2023-05-14T17:38:08.800Z,97667.88
2023-05-14T17:43:10.339Z,97664.69
2023-05-14T17:48:11.887Z,97657.38
2023-05-14T17:53:13.813Z,97662.97
2023-05-14T17:58:15.874Z,97662.69
2023-05-14T18:03:20.095Z,97659.84
2023-05-14T18:08:21.749Z,97665.22
2023-05-14T18:13:23.161Z,97657.75
2023-05-14T18:18:24.601Z,97652.34
2023-05-14T18:23:26.060Z,97652.81
2023-05-14T18:28:27.870Z,97644.56
2023-05-14T18:33:30.253Z,97658.97
2023-05-14T18:38:32.748Z,97652.47
2023-05-14T18:43:34.186Z,97661.09
2023-05-14T18:48:35.682Z,97659.16
2023-05-14T18:53:37.144Z,97667.78
2023-05-14T18:58:38.559Z,97662.69
2023-05-14T19:03:41.931Z,97665.31
2023-05-14T19:08:43.437Z,97669.66
2023-05-14T19:13:46.681Z,97668.09
2023-05-14T19:18:48.458Z,97685.00
2023-05-14T19:23:49.947Z,97681.19
2023-05-14T19:28:52.555Z,97686.44
2023-05-14T19:33:54.641Z,97679.69
2023-05-14T19:38:56.042Z,97688.25
2023-05-14T19:43:57.494Z,97685.59
2023-05-14T19:48:59.065Z,97677.19
2023-05-14T19:54:01.062Z,97669.81
2023-05-14T19:59:02.496Z,97666.78
2023-05-14T20:04:04.060Z,97667.41
2023-05-14T20:09:05.811Z,97663.56
2023-05-14T20:14:07.389Z,97667.31
2023-05-14T20:19:08.877Z,97657.00
2023-05-14T20:24:10.359Z,97658.28
2023-05-14T20:29:14.261Z,97653.59
2023-05-14T20:34:15.783Z,97649.28
2023-05-14T20:39:17.207Z,97634.66
2023-05-14T20:44:20.543Z,97634.47
2023-05-14T20:49:22.181Z,97627.03
2023-05-14T20:54:23.590Z,97627.44
2023-05-14T20:59:25.010Z,97621.00
2023-05-14T21:04:26.666Z,97613.38
2023-05-14T21:09:28.389Z,97611.34
2023-05-14T21:14:29.831Z,97618.16
2023-05-14T21:19:31.250Z,97611.38
2023-05-14T21:24:32.656Z,97600.81
2023-05-14T21:29:34.098Z,97598.97
2023-05-14T21:34:35.538Z,97600.44
2023-05-14T21:39:36.950Z,97590.53
2023-05-14T21:44:38.370Z,97596.56
2023-05-14T21:49:40.443Z,97580.00
2023-05-14T21:54:41.880Z,97570.97
2023-05-14T21:59:43.289Z,97572.00
